createdAt,value
2022-11-21T00:01:36.478Z,5.35
2022-11-21T00:04:04.025Z,5.43
2022-11-21T00:06:30.421Z,5.40
2022-11-21T00:08:57.206Z,5.39
2022-11-21T00:11:24.804Z,5.43
2022-11-21T00:13:52.411Z,5.48
2022-11-21T00:16:20.057Z,5.46
2022-11-21T00:18:47.682Z,5.52
2022-11-21T00:21:14.261Z,5.53
2022-11-21T00:23:40.854Z,5.52
2022-11-21T00:26:07.459Z,5.54
2022-11-21T00:28:33.932Z,5.55
2022-11-21T00:31:03.432Z,5.58
2022-11-21T00:33:30.290Z,5.59
2022-11-21T00:35:56.919Z,5.69
2022-11-21T00:38:24.476Z,5.67
2022-11-21T00:40:51.069Z,5.70
2022-11-21T00:43:17.658Z,5.70
2022-11-21T00:45:44.245Z,5.69
2022-11-21T00:48:10.731Z,5.65
2022-11-21T00:50:37.423Z,5.66
2022-11-21T00:53:05.016Z,5.63
2022-11-21T00:55:32.608Z,5.59
2022-11-21T00:57:59.203Z,5.63
2022-11-21T01:00:25.801Z,5.63
2022-11-21T01:02:53.392Z,5.70
2022-11-21T01:05:21.068Z,5.71
2022-11-21T01:07:48.559Z,5.71
2022-11-21T01:10:15.158Z,5.76
2022-11-21T01:12:41.735Z,5.82
2022-11-21T01:15:09.328Z,5.80
2022-11-21T01:17:35.942Z,5.79
2022-11-21T01:20:03.544Z,5.72
2022-11-21T01:22:30.122Z,5.70
2022-11-21T01:24:56.721Z,5.84
2022-11-21T01:27:24.307Z,5.81
2022-11-21T01:29:51.933Z,5.80
2022-11-21T01:32:18.521Z,5.81
2022-11-21T01:34:47.116Z,5.86
2022-11-21T01:37:13.690Z,5.87
2022-11-21T01:39:41.319Z,5.84
2022-11-21T01:42:08.873Z,5.88
2022-11-21T01:44:35.468Z,5.90
2022-11-21T01:47:03.073Z,5.88
2022-11-21T01:49:29.679Z,5.96
2022-11-21T01:51:56.173Z,5.95
2022-11-21T01:54:22.847Z,5.93
2022-11-21T01:56:49.447Z,5.90
2022-11-21T01:59:17.038Z,5.93
2022-11-21T02:01:44.629Z,5.92
2022-11-21T02:04:11.525Z,5.89
2022-11-21T02:06:38.388Z,5.91
2022-11-21T02:09:04.845Z,5.89
2022-11-21T02:11:31.359Z,5.95
2022-11-21T02:13:57.827Z,5.95
2022-11-21T02:16:25.178Z,5.92
2022-11-21T02:18:52.774Z,5.97
2022-11-21T02:21:20.359Z,5.97
2022-11-21T02:23:46.952Z,6.02
2022-11-21T02:26:13.545Z,5.99
2022-11-21T02:28:41.127Z,6.02
2022-11-21T02:31:09.731Z,5.98
2022-11-21T02:33:37.320Z,5.98
2022-11-21T02:36:03.900Z,5.99
2022-11-21T02:38:31.496Z,5.97
2022-11-21T02:40:59.067Z,5.97
2022-11-21T02:43:25.663Z,5.82
2022-11-21T02:45:52.291Z,5.85
2022-11-21T02:48:18.842Z,5.82
2022-11-21T02:50:45.274Z,5.78
2022-11-21T02:53:12.016Z,5.74
2022-11-21T02:55:39.610Z,5.76
2022-11-21T02:58:06.217Z,5.78
2022-11-21T03:00:32.793Z,5.72
2022-11-21T03:02:59.388Z,5.71
2022-11-21T03:05:26.961Z,5.64
2022-11-21T03:07:53.557Z,5.67
2022-11-21T03:10:20.158Z,5.65
2022-11-21T03:12:46.765Z,5.68
2022-11-21T03:15:13.369Z,5.69
2022-11-21T03:17:39.933Z,5.66
2022-11-21T03:20:06.537Z,5.56
2022-11-21T03:22:33.138Z,5.55
2022-11-21T03:25:00.748Z,5.56
2022-11-21T03:27:28.324Z,5.58
2022-11-21T03:29:54.916Z,5.60
2022-11-21T03:32:21.512Z,5.57
2022-11-21T03:34:48.070Z,5.54
2022-11-21T03:37:14.469Z,5.54
2022-11-21T03:39:41.259Z,5.55
2022-11-21T03:42:07.868Z,5.58
2022-11-21T03:44:34.430Z,5.57
2022-11-21T03:47:01.115Z,5.59
2022-11-21T03:49:28.620Z,5.60
2022-11-21T03:51:55.215Z,5.63
2022-11-21T03:54:21.622Z,5.65
2022-11-21T03:56:49.070Z,5.66
2022-11-21T03:59:15.489Z,5.66
2022-11-21T04:01:43.674Z,5.65
2022-11-21T04:04:11.193Z,5.66
2022-11-21T04:06:38.783Z,5.66
2022-11-21T04:09:06.226Z,5.64
2022-11-21T04:11:32.958Z,5.62
2022-11-21T04:13:59.538Z,5.63
2022-11-21T04:16:26.200Z,5.64
2022-11-21T04:18:53.816Z,5.67
2022-11-21T04:21:20.370Z,5.66
2022-11-21T04:23:46.964Z,5.65
2022-11-21T04:26:13.570Z,5.62
2022-11-21T04:28:42.763Z,5.63
2022-11-21T04:31:11.129Z,5.60
2022-11-21T04:33:39.395Z,5.64
2022-11-21T04:36:06.967Z,5.64
2022-11-21T04:38:33.548Z,5.72
2022-11-21T04:41:01.144Z,5.69
2022-11-21T04:43:28.741Z,5.67
2022-11-21T04:45:55.168Z,5.76
2022-11-21T04:48:30.842Z,5.72
2022-11-21T04:50:57.267Z,5.74
2022-11-21T04:53:23.767Z,5.79
2022-11-21T04:55:50.205Z,5.81
2022-11-21T04:58:18.334Z,5.81
2022-11-21T05:00:44.938Z,5.81
2022-11-21T05:03:11.846Z,5.84
2022-11-21T05:05:40.152Z,5.86
2022-11-21T05:08:07.724Z,5.87
2022-11-21T05:10:36.351Z,5.92
2022-11-21T05:13:02.917Z,5.91
2022-11-21T05:15:29.510Z,5.95
2022-11-21T05:17:55.981Z,6.01
2022-11-21T05:20:23.712Z,5.97
2022-11-21T05:22:52.398Z,5.92
2022-11-21T05:25:19.861Z,5.85
2022-11-21T05:27:47.480Z,5.86
2022-11-21T05:30:14.043Z,5.84
2022-11-21T05:32:42.688Z,5.81
2022-11-21T05:35:11.262Z,5.79
2022-11-21T05:37:38.822Z,5.75
2022-11-21T05:40:05.448Z,5.80
2022-11-21T05:42:33.028Z,5.76
2022-11-21T05:45:00.615Z,5.81
2022-11-21T05:47:28.202Z,5.84
2022-11-21T05:49:54.795Z,5.80
2022-11-21T05:52:22.450Z,5.78
2022-11-21T05:54:50.020Z,5.80
2022-11-21T05:57:17.584Z,5.80
2022-11-21T05:59:45.219Z,5.80
2022-11-21T06:02:13.076Z,5.81
2022-11-21T06:04:41.386Z,5.84
2022-11-21T06:07:09.061Z,5.80
2022-11-21T06:09:36.562Z,5.80
2022-11-21T06:12:03.847Z,5.77
2022-11-21T06:14:30.869Z,5.71
2022-11-21T06:16:59.367Z,5.70
2022-11-21T06:19:26.032Z,5.65
2022-11-21T06:21:53.556Z,5.62
2022-11-21T06:24:22.313Z,5.61
2022-11-21T06:26:50.745Z,5.60
2022-11-21T06:29:17.389Z,5.61
2022-11-21T06:31:44.927Z,5.56
2022-11-21T06:34:11.513Z,5.55
2022-11-21T06:36:38.145Z,5.55
2022-11-21T06:39:05.761Z,5.58
2022-11-21T06:41:34.746Z,5.56
2022-11-21T06:44:01.172Z,5.57
2022-11-21T06:46:27.622Z,5.59
2022-11-21T06:48:55.114Z,5.59
2022-11-21T06:51:22.727Z,5.63
2022-11-21T06:53:50.297Z,5.67
2022-11-21T06:56:16.900Z,5.69
2022-11-21T06:58:44.496Z,5.75
2022-11-21T07:01:14.175Z,5.78
2022-11-21T07:03:41.684Z,5.82
2022-11-21T07:06:09.279Z,5.88
2022-11-21T07:08:36.874Z,5.89
2022-11-21T07:11:24.059Z,5.90
2022-11-21T07:13:52.264Z,5.95
2022-11-21T07:16:19.211Z,5.99
2022-11-21T07:18:45.669Z,6.04
2022-11-21T07:21:12.966Z,6.07
2022-11-21T07:23:40.496Z,6.10
2022-11-21T07:26:09.090Z,6.13
2022-11-21T07:28:36.579Z,6.14
2022-11-21T07:31:08.681Z,6.15
2022-11-21T07:33:39.938Z,6.16
2022-11-21T07:36:08.099Z,6.18
2022-11-21T07:38:37.189Z,6.20
2022-11-21T07:41:04.819Z,6.22
2022-11-21T07:43:31.686Z,6.28
2022-11-21T07:45:58.175Z,6.33
2022-11-21T07:48:27.023Z,6.37
2022-11-21T07:50:53.548Z,6.43
2022-11-21T07:53:20.017Z,6.47
2022-11-21T07:55:46.410Z,6.67
2022-11-21T07:58:12.862Z,6.84
2022-11-21T08:00:39.566Z,6.72
2022-11-21T08:03:06.128Z,6.74
2022-11-21T08:05:33.750Z,6.58
2022-11-21T08:08:00.339Z,6.57
2022-11-21T08:10:27.993Z,6.57
2022-11-21T08:12:56.556Z,6.59
2022-11-21T08:15:23.663Z,6.65
2022-11-21T08:17:51.170Z,6.71
2022-11-21T08:20:17.863Z,6.72
2022-11-21T08:22:44.386Z,6.75
2022-11-21T08:25:10.874Z,6.79
2022-11-21T08:27:38.061Z,6.81
2022-11-21T08:30:06.686Z,6.82
2022-11-21T08:32:34.278Z,6.86
2022-11-21T08:35:00.718Z,6.92
2022-11-21T08:37:28.446Z,6.98
2022-11-21T08:39:56.042Z,7.07
2022-11-21T08:42:23.643Z,7.17
2022-11-21T08:44:52.364Z,7.20
2022-11-21T08:47:19.814Z,7.26
2022-11-21T08:49:46.400Z,7.29
2022-11-21T08:52:12.946Z,7.34
2022-11-21T08:54:39.445Z,7.35
2022-11-21T08:57:05.965Z,7.40
2022-11-21T08:59:32.763Z,7.40
2022-11-21T09:01:59.424Z,7.36
2022-11-21T09:04:28.695Z,7.32
2022-11-21T09:06:57.562Z,7.28
2022-11-21T09:09:25.756Z,7.31
2022-11-21T09:11:52.744Z,7.37
2022-11-21T09:14:19.334Z,7.43
2022-11-21T09:16:47.917Z,7.47
2022-11-21T09:19:14.836Z,7.54
2022-11-21T09:21:42.168Z,7.62
2022-11-21T09:24:10.712Z,7.65
2022-11-21T09:26:38.346Z,7.69
2022-11-21T09:29:07.498Z,7.70
2022-11-21T09:31:35.504Z,7.74
2022-11-21T09:34:03.122Z,7.70
2022-11-21T09:36:30.712Z,7.68
2022-11-21T09:38:59.367Z,7.73
2022-11-21T09:41:26.926Z,7.81
2022-11-21T09:43:55.838Z,7.89
2022-11-21T09:46:23.123Z,8.02
2022-11-21T09:48:50.719Z,8.16
2022-11-21T09:51:17.299Z,8.20
2022-11-21T09:53:43.897Z,8.22
2022-11-21T09:56:10.428Z,8.26
2022-11-21T09:58:37.073Z,8.31
2022-11-21T10:01:03.782Z,8.39
2022-11-21T10:03:31.249Z,8.45
2022-11-21T10:05:58.864Z,8.54
2022-11-21T10:08:26.428Z,8.66
2022-11-21T10:10:53.029Z,8.71
2022-11-21T10:13:19.441Z,8.81
2022-11-21T10:15:47.164Z,8.89
2022-11-21T10:18:13.612Z,8.89
2022-11-21T10:20:40.025Z,8.96
2022-11-21T10:23:06.446Z,9.06
2022-11-21T10:25:32.850Z,9.14
2022-11-21T10:27:59.273Z,9.32
2022-11-21T10:30:25.687Z,9.42
2022-11-21T10:32:52.151Z,9.52
2022-11-21T10:35:18.600Z,9.41
2022-11-21T10:37:44.987Z,9.59
2022-11-21T10:40:11.409Z,9.56
2022-11-21T10:42:37.806Z,9.69
2022-11-21T10:45:04.199Z,9.90
2022-11-21T10:47:30.616Z,9.83
2022-11-21T10:49:57.046Z,9.86
2022-11-21T10:52:23.499Z,9.96
2022-11-21T10:54:49.915Z,10.00
2022-11-21T10:57:16.325Z,10.04
2022-11-21T10:59:42.786Z,10.12
2022-11-21T11:02:09.202Z,10.18
2022-11-21T11:04:44.552Z,10.15
2022-11-21T11:07:14.589Z,10.17
2022-11-21T11:09:41.001Z,10.18
2022-11-21T11:12:07.401Z,10.20
2022-11-21T11:14:34.023Z,10.22
2022-11-21T11:17:00.403Z,10.22
2022-11-21T11:19:33.889Z,10.25
2022-11-21T11:22:05.033Z,10.25
2022-11-21T11:24:31.486Z,10.23
2022-11-21T11:26:57.910Z,10.23
2022-11-21T11:29:24.330Z,10.26
2022-11-21T11:31:50.770Z,10.26
2022-11-21T11:34:17.208Z,10.30
2022-11-21T11:36:43.629Z,10.28
2022-11-21T11:39:10.050Z,10.29
2022-11-21T11:41:36.455Z,10.29
2022-11-21T11:44:02.837Z,10.27
2022-11-21T11:46:29.353Z,10.27
2022-11-21T11:49:19.304Z,10.26
2022-11-21T11:51:42.181Z,10.23
2022-11-21T11:54:08.561Z,10.21
2022-11-21T11:56:34.990Z,10.24
2022-11-21T11:59:01.438Z,10.22
2022-11-21T12:01:27.826Z,10.21
2022-11-21T12:03:57.998Z,10.22
2022-11-21T12:06:36.988Z,10.20
2022-11-21T12:09:11.222Z,10.17
2022-11-21T12:11:37.675Z,10.13
2022-11-21T12:14:04.100Z,10.11
2022-11-21T12:16:30.499Z,10.10
2022-11-21T12:18:56.903Z,10.08
2022-11-21T12:21:23.323Z,10.08
2022-11-21T12:23:49.738Z,10.05
2022-11-21T12:26:16.165Z,10.05
2022-11-21T12:28:42.631Z,10.05
2022-11-21T12:31:09.039Z,10.02
2022-11-21T12:33:35.539Z,10.01
2022-11-21T12:36:16.836Z,9.97
2022-11-21T12:38:45.174Z,9.94
2022-11-21T12:41:11.778Z,9.92
2022-11-21T12:43:38.180Z,9.89
2022-11-21T12:46:04.589Z,9.88
2022-11-21T12:48:31.014Z,9.88
2022-11-21T12:50:57.446Z,9.93
2022-11-21T12:53:23.900Z,9.93
2022-11-21T12:55:50.306Z,9.90
2022-11-21T12:58:16.740Z,9.93
2022-11-21T13:00:43.171Z,9.94
2022-11-21T13:03:09.588Z,9.94
2022-11-21T13:05:36.106Z,9.96
2022-11-21T13:08:02.516Z,9.99
2022-11-21T13:10:28.962Z,10.04
2022-11-21T13:12:55.418Z,10.08
2022-11-21T13:15:21.792Z,10.11
2022-11-21T13:17:49.496Z,10.13
2022-11-21T13:20:15.994Z,10.15
2022-11-21T13:22:42.400Z,10.16
2022-11-21T13:25:08.818Z,10.15
2022-11-21T13:27:38.962Z,10.16
2022-11-21T13:30:05.938Z,10.15
2022-11-21T13:32:32.333Z,10.15
2022-11-21T13:34:58.763Z,10.16
2022-11-21T13:37:25.157Z,10.14
2022-11-21T13:39:51.546Z,10.11
2022-11-21T13:42:20.522Z,10.10
2022-11-21T13:44:47.317Z,10.09
2022-11-21T13:47:13.740Z,10.08
2022-11-21T13:49:40.177Z,10.05
2022-11-21T13:52:06.597Z,10.06
2022-11-21T13:54:32.989Z,10.04
2022-11-21T13:56:59.410Z,10.01
2022-11-21T13:59:26.062Z,9.94
2022-11-21T14:01:52.748Z,9.93
2022-11-21T14:04:19.210Z,9.85
2022-11-21T14:06:45.749Z,9.78
2022-11-21T14:09:12.221Z,9.76
2022-11-21T14:11:38.633Z,9.71
2022-11-21T14:14:05.045Z,9.63
2022-11-21T14:16:31.476Z,9.55
2022-11-21T14:18:57.902Z,9.51
2022-11-21T14:21:24.300Z,9.46
2022-11-21T14:23:50.729Z,9.41
2022-11-21T14:26:17.138Z,9.34
2022-11-21T14:28:43.545Z,9.26
2022-11-21T14:31:09.945Z,9.21
2022-11-21T14:33:36.360Z,9.15
2022-11-21T14:36:02.878Z,9.08
2022-11-21T14:38:29.281Z,9.04
2022-11-21T14:40:55.711Z,8.98
2022-11-21T14:43:22.152Z,8.91
2022-11-21T14:45:48.582Z,8.88
2022-11-21T14:48:14.987Z,8.86
2022-11-21T14:50:41.435Z,8.82
2022-11-21T14:53:07.842Z,8.76
2022-11-21T14:55:34.274Z,8.74
2022-11-21T14:58:00.743Z,8.70
2022-11-21T15:03:13.593Z,8.69
2022-11-21T15:06:01.244Z,8.66
2022-11-21T15:09:06.020Z,8.64
2022-11-21T15:11:12.912Z,8.63
2022-11-21T15:14:06.535Z,8.58
2022-11-21T15:16:25.706Z,8.53
2022-11-21T15:18:52.110Z,8.51
2022-11-21T15:21:18.533Z,8.50
2022-11-21T15:23:44.966Z,8.48
2022-11-21T15:26:11.380Z,8.48
2022-11-21T15:28:38.068Z,8.47
2022-11-21T15:31:09.788Z,8.41
2022-11-21T15:33:37.327Z,8.41
2022-11-21T15:36:03.734Z,8.39
2022-11-21T15:38:30.183Z,8.32
2022-11-21T15:40:56.602Z,8.33
2022-11-21T15:43:23.026Z,8.28
2022-11-21T15:45:49.431Z,8.25
2022-11-21T15:48:15.847Z,8.22
2022-11-21T15:50:42.274Z,8.20
2022-11-21T15:53:08.673Z,8.19
2022-11-21T15:55:35.099Z,8.17
2022-11-21T15:58:01.548Z,8.15
2022-11-21T16:00:27.977Z,8.16
2022-11-21T16:02:54.402Z,8.10
2022-11-21T16:05:20.801Z,8.12
2022-11-21T16:07:48.571Z,8.09
2022-11-21T16:10:21.273Z,8.10
2022-11-21T16:12:52.443Z,8.02
2022-11-21T16:15:18.849Z,8.00
2022-11-21T16:17:45.233Z,7.98
2022-11-21T16:20:11.625Z,7.92
2022-11-21T16:22:41.461Z,7.90
2022-11-21T16:25:10.693Z,7.69
2022-11-21T16:27:37.128Z,7.56
2022-11-21T16:30:03.544Z,7.48
2022-11-21T16:32:29.957Z,7.39
2022-11-21T16:34:56.366Z,7.23
2022-11-21T16:37:22.791Z,7.03
2022-11-21T16:39:49.280Z,6.91
2022-11-21T16:42:15.745Z,6.83
2022-11-21T16:44:42.175Z,6.76
2022-11-21T16:47:08.853Z,6.69
2022-11-21T16:49:35.254Z,6.63
2022-11-21T16:52:01.653Z,6.55
2022-11-21T16:54:28.082Z,6.49
2022-11-21T16:56:54.483Z,6.36
2022-11-21T16:59:20.980Z,6.34
2022-11-21T17:01:47.513Z,6.27
2022-11-21T17:04:17.220Z,6.23
2022-11-21T17:06:44.092Z,6.15
2022-11-21T17:09:10.535Z,6.16
2022-11-21T17:11:36.945Z,6.10
2022-11-21T17:14:03.398Z,6.07
2022-11-21T17:16:29.800Z,5.99
2022-11-21T17:18:56.197Z,5.96
2022-11-21T17:21:22.613Z,5.98
2022-11-21T17:23:49.038Z,5.96
2022-11-21T17:26:15.494Z,5.98
2022-11-21T17:28:45.667Z,5.99
2022-11-21T17:31:12.413Z,6.00
2022-11-21T17:33:38.844Z,6.04
2022-11-21T17:36:05.247Z,6.10
2022-11-21T17:38:31.696Z,6.08
2022-11-21T17:40:59.042Z,6.09
2022-11-21T17:43:25.493Z,6.09
2022-11-21T17:45:51.913Z,6.10
2022-11-21T17:48:18.315Z,6.12
2022-11-21T17:50:44.696Z,6.13
2022-11-21T17:53:11.123Z,6.12
2022-11-21T17:55:37.564Z,6.14
2022-11-21T17:58:03.945Z,6.13
2022-11-21T18:00:30.363Z,6.18
2022-11-21T18:02:56.830Z,6.13
2022-11-21T18:05:23.327Z,6.12
2022-11-21T18:07:49.756Z,6.15
2022-11-21T18:10:41.621Z,6.12
2022-11-21T18:13:02.555Z,5.94
2022-11-21T18:15:29.004Z,5.95
2022-11-21T18:17:55.421Z,5.88
2022-11-21T18:20:21.829Z,5.88
2022-11-21T18:22:48.259Z,5.95
2022-11-21T18:25:14.771Z,5.94
2022-11-21T18:27:41.173Z,5.85
2022-11-21T18:30:07.603Z,5.92
2022-11-21T18:32:34.062Z,5.98
2022-11-21T18:35:00.465Z,6.03
2022-11-21T18:37:26.883Z,6.03
2022-11-21T18:39:53.311Z,6.03
2022-11-21T18:42:19.738Z,6.09
2022-11-21T18:44:47.114Z,6.13
2022-11-21T18:47:20.387Z,6.15
2022-11-21T18:49:48.116Z,6.12
2022-11-21T18:52:14.560Z,6.16
2022-11-21T18:54:40.977Z,6.19
2022-11-21T18:57:07.394Z,6.22
2022-11-21T18:59:33.836Z,6.27
2022-11-21T19:02:00.337Z,6.31
2022-11-21T19:04:26.817Z,6.36
2022-11-21T19:06:53.228Z,6.40
2022-11-21T19:09:19.688Z,6.44
2022-11-21T19:11:46.134Z,6.47
2022-11-21T19:14:12.531Z,6.47
2022-11-21T19:16:38.962Z,6.48
2022-11-21T19:19:33.497Z,6.47
2022-11-21T19:21:51.727Z,6.49
2022-11-21T19:24:18.123Z,6.54
2022-11-21T19:26:44.570Z,6.54
2022-11-21T19:29:10.993Z,6.57
2022-11-21T19:31:43.087Z,6.58
2022-11-21T19:34:11.422Z,6.60
2022-11-21T19:36:37.850Z,6.63
2022-11-21T19:39:04.243Z,6.69
2022-11-21T19:41:30.683Z,6.70
2022-11-21T19:43:57.129Z,6.76
2022-11-21T19:46:23.574Z,6.77
2022-11-21T19:48:50.011Z,6.75
2022-11-21T19:51:16.421Z,6.76
2022-11-21T19:53:42.803Z,6.77
2022-11-21T19:56:09.226Z,6.78
2022-11-21T19:58:35.607Z,6.81
2022-11-21T20:01:02.041Z,6.82
2022-11-21T20:03:28.481Z,6.84
2022-11-21T20:05:54.868Z,6.86
2022-11-21T20:08:21.320Z,6.84
2022-11-21T20:10:47.778Z,6.85
2022-11-21T20:13:14.182Z,6.88
2022-11-21T20:15:40.592Z,6.90
2022-11-21T20:18:06.999Z,6.90
2022-11-21T20:20:33.426Z,6.89
2022-11-21T20:22:59.818Z,6.89
2022-11-21T20:25:26.217Z,6.91
2022-11-21T20:27:52.650Z,6.90
2022-11-21T20:30:19.070Z,6.88
2022-11-21T20:32:45.447Z,6.94
2022-11-21T20:35:11.851Z,6.90
2022-11-21T20:37:38.233Z,6.93
2022-11-21T20:40:04.628Z,6.96
2022-11-21T20:42:31.025Z,6.94
2022-11-21T20:45:54.363Z,6.94
2022-11-21T20:47:43.855Z,6.98
2022-11-21T20:50:10.274Z,6.95
2022-11-21T20:55:23.174Z,6.99
2022-11-21T20:57:49.739Z,7.00
2022-11-21T21:00:16.180Z,6.99
2022-11-21T21:02:42.638Z,7.03
2022-11-21T21:05:09.033Z,7.05
2022-11-21T21:07:35.494Z,7.02
2022-11-21T21:10:01.967Z,6.99
2022-11-21T21:12:28.398Z,7.01
2022-11-21T21:14:54.823Z,6.99
2022-11-21T21:17:21.231Z,7.07
2022-11-21T21:19:47.665Z,7.01
2022-11-21T21:22:14.083Z,6.99
2022-11-21T21:24:40.478Z,7.03
2022-11-21T21:27:07.021Z,7.08
2022-11-21T21:29:33.611Z,7.04
2022-11-21T21:32:00.175Z,7.07
2022-11-21T21:34:26.614Z,7.13
2022-11-21T21:36:53.081Z,7.08
2022-11-21T21:39:19.474Z,7.11
2022-11-21T21:41:46.130Z,7.08
2022-11-21T21:44:12.822Z,7.14
2022-11-21T21:46:39.228Z,7.22
2022-11-21T21:49:05.626Z,7.23
2022-11-21T21:51:32.064Z,7.21
2022-11-21T21:53:58.482Z,7.23
2022-11-21T21:56:24.874Z,7.28
2022-11-21T21:58:51.312Z,7.21
2022-11-21T22:01:17.797Z,7.21
2022-11-21T22:03:44.228Z,7.19
2022-11-21T22:06:10.665Z,7.17
2022-11-21T22:08:37.066Z,7.18
2022-11-21T22:11:03.463Z,7.24
2022-11-21T22:13:29.909Z,7.22
2022-11-21T22:15:56.343Z,7.16
2022-11-21T22:18:22.771Z,7.13
2022-11-21T22:20:49.197Z,7.14
2022-11-21T22:23:15.602Z,7.16
2022-11-21T22:25:42.008Z,7.18
2022-11-21T22:28:08.422Z,7.15
2022-11-21T22:30:34.815Z,7.12
2022-11-21T22:33:01.222Z,7.12
2022-11-21T22:35:27.623Z,7.09
2022-11-21T22:37:54.137Z,7.07
2022-11-21T22:40:20.546Z,7.11
2022-11-21T22:42:46.977Z,7.15
2022-11-21T22:45:13.391Z,7.13
2022-11-21T22:47:43.576Z,7.21
2022-11-21T22:50:12.900Z,7.09
2022-11-21T22:52:39.393Z,7.08
2022-11-21T22:55:05.843Z,7.08
2022-11-21T22:57:32.268Z,7.09
2022-11-21T22:59:58.661Z,7.11
2022-11-21T23:02:25.104Z,7.15
2022-11-21T23:04:51.584Z,7.10
2022-11-21T23:07:18.064Z,7.11
2022-11-21T23:09:44.511Z,7.14
2022-11-21T23:12:10.924Z,7.12
2022-11-21T23:14:37.367Z,7.14
2022-11-21T23:17:03.764Z,7.16
2022-11-21T23:19:30.411Z,7.17
2022-11-21T23:21:56.941Z,7.16
2022-11-21T23:24:23.360Z,7.16
2022-11-21T23:26:49.754Z,7.18
2022-11-21T23:29:16.159Z,7.17
2022-11-21T23:31:42.556Z,7.17
2022-11-21T23:34:08.942Z,7.16
2022-11-21T23:36:35.340Z,7.21
2022-11-21T23:39:01.748Z,7.11
2022-11-21T23:41:29.093Z,7.06
2022-11-21T23:43:55.526Z,7.04
2022-11-21T23:46:21.900Z,7.00
2022-11-21T23:48:48.381Z,7.00
2022-11-21T23:51:14.778Z,7.01
2022-11-21T23:53:41.187Z,7.01
2022-11-21T23:56:07.609Z,6.98
2022-11-21T23:58:34.048Z,6.96
